Terminal Aerodrome Forecast
Issued by NWS

Home | Current Version | Previous Version | Text Only | Print | Product List | Glossary On
Versions: 1 2 3 4 5 6 7 8 9 10 11 12 13 14 15 16 17 18 19 20 21
000
FTUS43 KICT 052320
TAFCNU
TAF
KCNU 052320Z 0600/0624 17017KT P6SM BKN080
     FM060200 18013KT P6SM SCT080 BKN250
     FM061500 18012G22KT P6SM SCT035 BKN250=

USA.gov is the U.S. government's official web portal to all federal, state and local government web resources and services.